Stewart, Canada
Current Conditions -  °F | °C
As of 6:53 AM on Thursday 23 Oct 2014 (Local Time) from PAKT Reporting Station
Overcast Overcast  
Wind Chill: 44°   Ceiling: 2500
Heat Index: 48°   Visibility: 10mi
Dew Point: 45°   Wind: 9mph
Humidity: 89%   Direction: 160°SSE
Pressure: 29.47"   Gusts: NA
Location:  55.93°N, 130°W
Report Text: PAKT 231353Z AUTO 16008KT 10SM OVC025 09/07 A2947 RMK AO2 RAB07E17 SLP979 P0000 T00890072 TSNO
Loading
Personal Weather Stations






























Interactive Weather Map
Tropical Storm Tracking
New forecast layout! Learn more

10-Day Weather Forecast

Advertisements
Track Severe Weather on mobile